»·PEaware :: DAL1240 KSAN-KLAX

DAL1240 :: KSAN-KLAX

FLIGHT INFORMATION

Flight Status: Arrived
Operator:
Delta Air Lines
More flights by this operator :: More flights under this callsign
Pilot: Ibrahima D. (27994)
Aircraft: AIRBUS A319
(A319)
More flights by this aircraft type
Origin: KSAN San Diego Intl-Lindbergh
United States
Destination: KLAX Los Angeles Intl
United States
More flights between these airports :: More routes between these airports
Route: +CWARD2 SLI
File this flight plan on PilotEdge
Remarks: first time on PE
Altitude:
(Current/Filed)
12,000ft
Speed:
(Current/Filed)
387kts
Departed: 13-Feb-20 06:47 PM
Arrived: 13-Feb-20 07:13 PM
Distance/Time
Traveled:
95nm/0:25
Distance/Time
To Go:
Arrived

Flight Plot

Page will automatically refresh every two minutes.

Flight plan parsing failed; only flown route is shown


Map Options




Map Legend


Flown Route
Filed Route
Departure Airport
Arrival Airport
Navaid (VOR, NDB)
Fix

Horizontal Profiles

Position Reports

Time Latitude Longitude Heading Altitude Ground
Speed
13-Feb-20 18:13 32.732853 -117.204678 110 26ft 0kts
13-Feb-20 18:14 32.732853 -117.204678 110 26ft 0kts
13-Feb-20 18:15 32.732853 -117.204678 110 26ft 0kts
13-Feb-20 18:16 32.732853 -117.204678 110 26ft 0kts
13-Feb-20 18:17 32.732853 -117.204678 110 26ft 0kts
13-Feb-20 18:18 32.732853 -117.204678 110 26ft 0kts
13-Feb-20 18:19 32.732853 -117.204678 110 26ft 0kts
13-Feb-20 18:20 32.732853 -117.204678 110 26ft 0kts
13-Feb-20 18:21 32.732853 -117.204678 110 26ft 0kts
13-Feb-20 18:22 32.732853 -117.204678 110 26ft 0kts
13-Feb-20 18:23 32.732853 -117.204678 110 26ft 0kts
13-Feb-20 18:24 32.732853 -117.204678 110 26ft 0kts
13-Feb-20 18:25 32.732853 -117.204678 110 26ft 0kts
13-Feb-20 18:26 32.732853 -117.204678 110 26ft 0kts
13-Feb-20 18:27 32.732853 -117.204678 110 26ft 0kts
13-Feb-20 18:28 32.732853 -117.204678 110 26ft 0kts
13-Feb-20 18:29 32.732853 -117.204678 110 26ft 0kts
13-Feb-20 18:30 32.732853 -117.204678 110 26ft 0kts
13-Feb-20 18:31 32.732853 -117.204678 110 26ft 0kts
13-Feb-20 18:32 32.732854 -117.204678 110 26ft 0kts
13-Feb-20 18:33 32.732929 -117.204900 116 26ft 2kts
13-Feb-20 18:34 32.733217 -117.205520 119 26ft 2kts
13-Feb-20 18:35 32.733399 -117.206118 90 26ft 2kts
13-Feb-20 18:36 32.733394 -117.206254 84 26ft 0kts
13-Feb-20 18:37 32.733394 -117.206254 84 26ft 0kts
13-Feb-20 18:38 32.733450 -117.205751 60 26ft 5kts
13-Feb-20 18:39 32.735362 -117.204671 50 26ft 5kts
13-Feb-20 18:40 32.735389 -117.201553 106 26ft 14kts
13-Feb-20 18:41 32.734095 -117.196201 106 26ft 18kts
13-Feb-20 18:42 32.732546 -117.189804 106 26ft 21kts
13-Feb-20 18:43 32.730860 -117.182876 105 26ft 21kts
13-Feb-20 18:44 32.729461 -117.176935 86 26ft 5kts
13-Feb-20 18:45 32.729497 -117.176739 73 26ft 4kts
13-Feb-20 18:46 32.732566 -117.185553 286 26ft 125kts
13-Feb-20 18:47 32.751560 -117.231915 303 2204ft 170kts
13-Feb-20 18:48 32.782512 -117.288864 302 4538ft 239kts
13-Feb-20 18:49 32.826308 -117.361015 307 7529ft 291kts
13-Feb-20 18:50 32.876756 -117.438757 307 9953ft 298kts
13-Feb-20 18:51 32.927284 -117.517244 307 9965ft 298kts
13-Feb-20 18:52 32.977703 -117.595792 307 9960ft 300kts
13-Feb-20 18:53 33.027920 -117.674242 306 9963ft 301kts
13-Feb-20 18:54 33.082598 -117.749620 319 9962ft 299kts
13-Feb-20 18:55 33.145786 -117.813348 319 9973ft 294kts
13-Feb-20 18:56 33.215171 -117.867784 346 9967ft 300kts
13-Feb-20 18:57 33.296880 -117.887769 350 9964ft 300kts
13-Feb-20 18:58 33.378605 -117.908214 347 9963ft 301kts
13-Feb-20 18:59 33.456729 -117.935869 343 9996ft 291kts
13-Feb-20 19:00 33.535535 -117.964562 344 9411ft 291kts
13-Feb-20 19:01 33.610913 -117.991970 344 8222ft 275kts
13-Feb-20 19:02 33.682261 -118.017992 344 7044ft 263kts
13-Feb-20 19:04 33.747211 -118.041747 346 6972ft 237kts
13-Feb-20 19:05 33.811046 -118.062857 350 6787ft 237kts
13-Feb-20 19:06 33.875054 -118.077622 352 5832ft 233kts
13-Feb-20 19:07 33.937543 -118.094080 323 4365ft 223kts
13-Feb-20 19:08 33.958619 -118.155432 266 3601ft 196kts
13-Feb-20 19:09 33.953960 -118.220739 261 2791ft 193kts
13-Feb-20 19:10 33.947597 -118.283315 263 1788ft 170kts
13-Feb-20 19:11 33.942622 -118.331607 264 998ft 133kts
13-Feb-20 19:12 33.938174 -118.374787 263 318ft 127kts
13-Feb-20 19:13 33.936335 -118.398827 294 136ft 19kts
13-Feb-20 19:14 33.936622 -118.399727 280 136ft 4kts
13-Feb-20 19:15 33.936478 -118.403273 302 136ft 6kts
13-Feb-20 19:16 33.938237 -118.405335 262 136ft 11kts
13-Feb-20 19:17 33.937766 -118.409742 263 136ft 14kts
13-Feb-20 19:18 33.937661 -118.410911 262 136ft 5kts
13-Feb-20 19:19 33.941019 -118.411963 353 136ft 19kts
13-Feb-20 19:20 33.946748 -118.412770 18 136ft 9kts
13-Feb-20 19:20 33.947498 -118.409077 83 136ft 18kts
13-Feb-20 19:22 33.947094 -118.404720 133 136ft 0kts
13-Feb-20 19:23 33.947094 -118.404721 133 136ft 0kts

Navigation Log

Ident Type
Flight plan parsing failed, navigation log unavailable